Time;durP1;ratioP1;P1;durP2;ratioP2;P2;SDS_P1;SDS_P2;PMS_P1;PMS_P2;Temp;Humidity;BMP_temperature;BMP_pressure;BME280_temperature;BME280_humidity;BME280_pressure;Samples;Min_cycle;Max_cycle;Signal;HPM_P1;HPM_P2
2023/07/20 00:01:20;;;;;;;;;;;;;;;;;;2213041;59;1966;-22
2023/07/20 00:03:54;;;;;;;;;;;;;;;;;;2213692;59;1901;-22
2023/07/20 00:06:28;;;;;;;;;;;;;;;;;;2212630;59;2117;-22
2023/07/20 00:08:58;;;;;;;;;;;;;;;;;;2209001;66;1611;-22
2023/07/20 00:11:29;;;;;;;;;;;;;;;;;;2212929;59;1394;-22
2023/07/20 00:13:59;;;;;;;;;;;;;;;;;;2214172;66;1320;-22
2023/07/20 00:16:29;;;;;;;;;;;;;;;;;;2214042;66;2082;-22
2023/07/20 00:19:00;;;;;;;;;;;;;;;;;;2212716;66;1930;-22
2023/07/20 00:21:30;;;;;;;;;;;;;;;;;;2213073;66;1166;-22
2023/07/20 00:24:00;;;;;;;;;;;;;;;;;;2212554;66;1220;-22
2023/07/20 00:26:30;;;;;;;;;;;;;;;;;;2213330;59;1928;-22
2023/07/20 00:29:00;;;;;;;;;;;;;;;;;;2212011;66;1312;-22
2023/07/20 00:31:31;;;;;;;;;;;;;;;;;;2213481;59;1380;-22
2023/07/20 00:34:03;;;;;;;;;;;;;;;;;;2207996;66;1493;-22
2023/07/20 00:36:34;;;;;;;;;;;;;;;;;;2213991;66;1390;-22
2023/07/20 00:39:04;;;;;;;;;;;;;;;;;;2210660;66;1928;-22
2023/07/20 00:41:35;;;;;;;;;;;;;;;;;;2209893;59;1627;-22
2023/07/20 00:44:06;;;;;;;;;;;;;;;;;;2213089;59;1524;-22
2023/07/20 00:46:36;;;;;;;;;;;;;;;;;;2213024;66;1290;-22
2023/07/20 00:49:07;;;;;;;;;;;;;;;;;;2208244;59;1245;-22
2023/07/20 00:51:37;;;;;;;;;;;;;;;;;;2212974;59;2010;-22
2023/07/20 00:54:08;;;;;;;;;;;;;;;;;;2212769;59;2086;-22
2023/07/20 00:56:38;;;;;;;;;;;;;;;;;;2210408;59;1429;-22
2023/07/20 00:59:09;;;;;;;;;;;;;;;;;;2206393;66;1928;-22
2023/07/20 01:01:39;;;;;;;;;;;;;;;;;;2213299;59;1321;-22
2023/07/20 01:04:10;;;;;;;;;;;;;;;;;;2213049;59;2036;-22
2023/07/20 01:06:59;;;;;;;;;;;;;;;;;;2209669;66;1528;-22
2023/07/20 01:09:42;;;;;;;;;;;;;;;;;;2211156;66;1114;-22
2023/07/20 01:12:13;;;;;;;;;;;;;;;;;;2211709;59;1491;-22
2023/07/20 01:14:44;;;;;;;;;;;;;;;;;;2212041;66;1128;-22
2023/07/20 01:17:14;;;;;;;;;;;;;;;;;;2214739;66;1375;-22
2023/07/20 01:19:44;;;;;;;;;;;;;;;;;;2213238;59;1933;-22
2023/07/20 01:22:35;;;;;;;;;;;;;;;;;;2213366;59;1748;-22
2023/07/20 01:25:24;;;;;;;;;;;;;;;;;;2212933;66;1131;-22
2023/07/20 01:28:26;;;;;;;;;;;;;;;;;;2212123;59;1778;-22
2023/07/20 01:30:57;;;;;;;;;;;;;;;;;;2211599;59;1862;-22
2023/07/20 01:33:28;;;;;;;;;;;;;;;;;;2212828;66;1347;-22
2023/07/20 01:35:59;;;;;;;;;;;;;;;;;;2212775;59;1817;-22
2023/07/20 01:38:29;;;;;;;;;;;;;;;;;;2212558;66;1936;-22
2023/07/20 01:40:59;;;;;;;;;;;;;;;;;;2212806;58;1327;-22
2023/07/20 01:43:30;;;;;;;;;;;;;;;;;;2214007;59;1708;-22
2023/07/20 01:46:00;;;;;;;;;;;;;;;;;;2211698;59;2188;-22
2023/07/20 01:48:30;;;;;;;;;;;;;;;;;;2211894;59;1669;-23
2023/07/20 01:51:01;;;;;;;;;;;;;;;;;;2211544;59;1696;-23
2023/07/20 01:53:31;;;;;;;;;;;;;;;;;;2212802;59;2107;-23
2023/07/20 01:56:01;;;;;;;;;;;;;;;;;;2212716;59;1328;-23
2023/07/20 01:58:31;;;;;;;;;;;;;;;;;;2213591;59;1994;-23
2023/07/20 02:01:02;;;;;;;;;;;;;;;;;;2213417;59;1644;-23
2023/07/20 02:03:33;;;;;;;;;;;;;;;;;;2213115;59;1822;-23
2023/07/20 02:06:03;;;;;;;;;;;;;;;;;;2211338;59;2224;-23
2023/07/20 02:08:33;;;;;;;;;;;;;;;;;;2211263;66;1179;-23
2023/07/20 02:11:04;;;;;;;;;;;;;;;;;;2211902;66;1699;-23
2023/07/20 02:13:34;;;;;;;;;;;;;;;;;;2212882;59;1546;-23
2023/07/20 02:16:05;;;;;;;;;;;;;;;;;;2207567;66;1636;-23
2023/07/20 02:18:36;;;;;;;;;;;;;;;;;;2212659;66;1919;-23
2023/07/20 02:21:06;;;;;;;;;;;;;;;;;;2212131;66;1180;-23
2023/07/20 02:23:37;;;;;;;;;;;;;;;;;;2211994;66;1172;-23
2023/07/20 02:26:07;;;;;;;;;;;;;;;;;;2211091;59;1901;-23
2023/07/20 02:28:37;;;;;;;;;;;;;;;;;;2207649;66;1588;-23
2023/07/20 02:31:07;;;;;;;;;;;;;;;;;;2212405;66;1154;-23
2023/07/20 02:33:38;;;;;;;;;;;;;;;;;;2212696;66;1335;-23
2023/07/20 02:36:08;;;;;;;;;;;;;;;;;;2212763;66;2089;-23
2023/07/20 02:38:38;;;;;;;;;;;;;;;;;;2212030;66;2002;-23
2023/07/20 02:41:08;;;;;;;;;;;;;;;;;;2212702;66;1774;-23
2023/07/20 02:43:38;;;;;;;;;;;;;;;;;;2210140;59;2257;-23
2023/07/20 02:46:08;;;;;;;;;;;;;;;;;;2211682;66;1756;-23
2023/07/20 02:48:39;;;;;;;;;;;;;;;;;;2212752;66;1326;-23
2023/07/20 02:51:09;;;;;;;;;;;;;;;;;;2211253;59;1237;-23
2023/07/20 02:53:39;;;;;;;;;;;;;;;;;;2212493;59;2132;-23
2023/07/20 02:56:09;;;;;;;;;;;;;;;;;;2213110;59;1242;-23
2023/07/20 02:58:45;;;;;;;;;;;;;;;;;;2213699;66;2028;-23
2023/07/20 03:01:15;;;;;;;;;;;;;;;;;;2212553;59;1672;-23
2023/07/20 03:03:46;;;;;;;;;;;;;;;;;;2212286;59;2154;-23
2023/07/20 03:06:16;;;;;;;;;;;;;;;;;;2207628;66;1435;-23
2023/07/20 03:08:51;;;;;;;;;;;;;;;;;;2212114;66;1333;-23
2023/07/20 03:11:22;;;;;;;;;;;;;;;;;;2212417;59;1399;-23
2023/07/20 03:13:52;;;;;;;;;;;;;;;;;;2212529;66;1496;-23
2023/07/20 03:16:23;;;;;;;;;;;;;;;;;;2212433;66;1358;-23
2023/07/20 03:18:53;;;;;;;;;;;;;;;;;;2211872;66;1937;-23
2023/07/20 03:21:26;;;;;;;;;;;;;;;;;;2212401;66;1249;-23
2023/07/20 03:23:57;;;;;;;;;;;;;;;;;;2211510;66;1257;-23
2023/07/20 03:26:27;;;;;;;;;;;;;;;;;;2209325;59;1729;-23
2023/07/20 03:28:57;;;;;;;;;;;;;;;;;;2211284;66;1473;-23
2023/07/20 03:31:28;;;;;;;;;;;;;;;;;;2212891;59;1835;-23
2023/07/20 03:33:58;;;;;;;;;;;;;;;;;;2209259;66;1361;-23
2023/07/20 03:36:31;;;;;;;;;;;;;;;;;;2213052;66;1422;-23
2023/07/20 03:39:02;;;;;;;;;;;;;;;;;;2212291;66;1964;-23
2023/07/20 03:41:36;;;;;;;;;;;;;;;;;;2213224;66;2066;-23
2023/07/20 03:44:10;;;;;;;;;;;;;;;;;;2212014;59;1689;-23
2023/07/20 03:46:40;;;;;;;;;;;;;;;;;;2209075;66;1454;-23
2023/07/20 03:49:10;;;;;;;;;;;;;;;;;;2210738;59;1657;-23
2023/07/20 03:51:40;;;;;;;;;;;;;;;;;;2212357;59;1337;-23
2023/07/20 03:54:11;;;;;;;;;;;;;;;;;;2211727;59;2085;-23
2023/07/20 03:56:41;;;;;;;;;;;;;;;;;;2212370;66;1818;-23
2023/07/20 03:59:11;;;;;;;;;;;;;;;;;;2211373;66;1935;-23
2023/07/20 04:01:41;;;;;;;;;;;;;;;;;;2209031;59;1255;-23
2023/07/20 04:04:13;;;;;;;;;;;;;;;;;;2211970;59;1397;-23
2023/07/20 04:06:46;;;;;;;;;;;;;;;;;;2211540;66;1203;-23
2023/07/20 04:09:16;;;;;;;;;;;;;;;;;;2210984;66;1350;-23
2023/07/20 04:11:47;;;;;;;;;;;;;;;;;;2212603;59;1580;-23
2023/07/20 04:14:20;;;;;;;;;;;;;;;;;;2212524;59;1670;-23
2023/07/20 04:16:51;;;;;;;;;;;;;;;;;;2212550;59;1946;-23
2023/07/20 04:19:21;;;;;;;;;;;;;;;;;;2212269;59;1983;-23
2023/07/20 04:21:51;;;;;;;;;;;;;;;;;;2212354;66;1439;-23
2023/07/20 04:24:21;;;;;;;;;;;;;;;;;;2211701;66;1314;-23
2023/07/20 04:26:52;;;;;;;;;;;;;;;;;;2211685;59;1352;-23
2023/07/20 04:29:22;;;;;;;;;;;;;;;;;;2208208;66;1696;-23
2023/07/20 04:31:52;;;;;;;;;;;;;;;;;;2212607;59;1716;-23
2023/07/20 04:34:22;;;;;;;;;;;;;;;;;;2212049;66;1341;-23
2023/07/20 04:36:53;;;;;;;;;;;;;;;;;;2212068;66;1261;-23
2023/07/20 04:39:23;;;;;;;;;;;;;;;;;;2212496;66;1927;-23
2023/07/20 04:41:54;;;;;;;;;;;;;;;;;;2213819;59;1502;-23
2023/07/20 04:44:24;;;;;;;;;;;;;;;;;;2213512;58;2045;-23
2023/07/20 04:46:54;;;;;;;;;;;;;;;;;;2211717;59;1249;-23
2023/07/20 04:49:24;;;;;;;;;;;;;;;;;;2213331;66;1622;-23
2023/07/20 04:51:55;;;;;;;;;;;;;;;;;;2212437;59;1587;-23
2023/07/20 04:54:26;;;;;;;;;;;;;;;;;;2214436;59;2407;-23
2023/07/20 04:56:57;;;;;;;;;;;;;;;;;;2213446;59;1329;-23
2023/07/20 04:59:27;;;;;;;;;;;;;;;;;;2212350;66;2006;-23
2023/07/20 05:01:57;;;;;;;;;;;;;;;;;;2212151;59;1716;-23
2023/07/20 05:04:27;;;;;;;;;;;;;;;;;;2212601;59;1657;-23
2023/07/20 05:06:57;;;;;;;;;;;;;;;;;;2212484;59;1690;-22
2023/07/20 05:09:28;;;;;;;;;;;;;;;;;;2212309;59;1914;-22
2023/07/20 05:11:58;;;;;;;;;;;;;;;;;;2212602;59;1599;-22
2023/07/20 05:14:28;;;;;;;;;;;;;;;;;;2213849;59;1851;-22
2023/07/20 05:16:58;;;;;;;;;;;;;;;;;;2206221;66;1467;-22
2023/07/20 05:19:29;;;;;;;;;;;;;;;;;;2212902;59;1994;-22
2023/07/20 05:21:59;;;;;;;;;;;;;;;;;;2208222;59;1698;-22
2023/07/20 05:24:29;;;;;;;;;;;;;;;;;;2213130;66;1386;-22
2023/07/20 05:26:59;;;;;;;;;;;;;;;;;;2211966;59;1393;-22
2023/07/20 05:29:30;;;;;;;;;;;;;;;;;;2212357;66;1545;-22
2023/07/20 05:32:00;;;;;;;;;;;;;;;;;;2212777;66;1207;-22
2023/07/20 05:34:30;;;;;;;;;;;;;;;;;;2211996;66;1891;-22
2023/07/20 05:37:00;;;;;;;;;;;;;;;;;;2212311;59;1751;-22
2023/07/20 05:39:32;;;;;;;;;;;;;;;;;;2212263;59;1941;-22
2023/07/20 05:42:02;;;;;;;;;;;;;;;;;;2212565;59;1633;-22
2023/07/20 05:44:32;;;;;;;;;;;;;;;;;;2213046;59;2044;-22
2023/07/20 05:47:02;;;;;;;;;;;;;;;;;;2207983;59;1940;-22
2023/07/20 05:49:34;;;;;;;;;;;;;;;;;;2212105;59;1926;-22
2023/07/20 05:52:04;;;;;;;;;;;;;;;;;;2211397;59;2097;-22
2023/07/20 05:54:35;;;;;;;;;;;;;;;;;;2213397;66;1213;-22
2023/07/20 05:57:05;;;;;;;;;;;;;;;;;;2213891;59;2006;-22
2023/07/20 05:59:36;;;;;;;;;;;;;;;;;;2212684;66;1924;-22
2023/07/20 06:02:08;;;;;;;;;;;;;;;;;;2211672;59;1734;-23
2023/07/20 06:04:38;;;;;;;;;;;;;;;;;;2213136;59;1378;-22
2023/07/20 06:07:09;;;;;;;;;;;;;;;;;;2211311;59;1626;-22
2023/07/20 06:09:39;;;;;;;;;;;;;;;;;;2211823;66;3085;-22
2023/07/20 06:12:09;;;;;;;;;;;;;;;;;;2212324;59;1738;-22
2023/07/20 06:14:40;;;;;;;;;;;;;;;;;;2209923;59;1608;-22
2023/07/20 06:17:10;;;;;;;;;;;;;;;;;;2212343;59;1609;-22
2023/07/20 06:22:20;;;;;;;;;;;;;;;;;;2215915;58;2069;-18
2023/07/20 06:24:50;;;;;;;;;;;;;;;;;;2214377;59;1836;-18
2023/07/20 06:27:20;;;;;;;;;;;;;;;;;;2214935;59;1825;-19
2023/07/20 06:29:50;;;;;;;;;;;;;;;;;;2217279;58;2187;-18
2023/07/20 06:32:21;;;;;;;;;;;;;;;;;;2214687;59;2293;-18
2023/07/20 06:34:51;;;;;;;;;;;;;;;;;;2208065;67;1311;-19
2023/07/20 06:37:21;;;;;;;;;;;;;;;;;;2214286;59;2344;-18
2023/07/20 06:39:52;;;;;;;;;;;;;;;;;;2214340;59;2006;-18
2023/07/20 06:42:22;;;;;;;;;;;;;;;;;;2214372;59;1966;-19
2023/07/20 06:44:52;;;;;;;;;;;;;;;;;;2213952;59;2100;-18
2023/07/20 06:47:23;;;;;;;;;;;;;;;;;;2213367;59;2009;-19
2023/07/20 06:49:53;;;;;;;;;;;;;;;;;;2213995;59;2130;-19
2023/07/20 06:52:23;;;;;;;;;;;;;;;;;;2214657;59;2021;-18
2023/07/20 06:54:54;;;;;;;;;;;;;;;;;;2215176;59;1593;-18
2023/07/20 06:57:25;;;;;;;;;;;;;;;;;;2213049;59;1918;-19
2023/07/20 06:59:55;;;;;;;;;;;;;;;;;;2214667;59;1944;-19
2023/07/20 07:02:25;;;;;;;;;;;;;;;;;;2214041;59;1907;-19
2023/07/20 07:04:56;;;;;;;;;;;;;;;;;;2214445;59;1409;-19
2023/07/20 07:07:26;;;;;;;;;;;;;;;;;;2213416;59;2128;-19
2023/07/20 07:09:56;;;;;;;;;;;;;;;;;;2208233;59;2306;-19
2023/07/20 07:12:26;;;;;;;;;;;;;;;;;;2212739;59;2078;-19
2023/07/20 07:14:57;;;;;;;;;;;;;;;;;;2212985;59;2101;-19
2023/07/20 07:17:28;;;;;;;;;;;;;;;;;;2214128;59;2062;-19
2023/07/20 07:19:58;;;;;;;;;;;;;;;;;;2212998;59;1999;-19
2023/07/20 07:22:29;;;;;;;;;;;;;;;;;;2213456;59;1603;-21
2023/07/20 07:24:59;;;;;;;;;;;;;;;;;;2213707;59;1851;-21
2023/07/20 07:27:29;;;;;;;;;;;;;;;;;;2214110;59;1713;-21
2023/07/20 07:30:00;;;;;;;;;;;;;;;;;;2213604;59;1729;-20
2023/07/20 07:32:30;;;;;;;;;;;;;;;;;;2213721;59;1710;-21
2023/07/20 07:35:00;;;;;;;;;;;;;;;;;;2210217;59;1661;-21
2023/07/20 07:37:30;;;;;;;;;;;;;;;;;;2210434;59;2066;-20
2023/07/20 07:40:01;;;;;;;;;;;;;;;;;;2210167;59;2008;-20
2023/07/20 07:42:31;;;;;;;;;;;;;;;;;;2213734;59;1274;-20
2023/07/20 07:45:02;;;;;;;;;;;;;;;;;;2210561;58;3176;-21
2023/07/20 07:47:32;;;;;;;;;;;;;;;;;;2212438;66;1308;-21
2023/07/20 07:50:03;;;;;;;;;;;;;;;;;;2209253;67;2060;-21
2023/07/20 07:52:33;;;;;;;;;;;;;;;;;;2213683;59;2054;-21
2023/07/20 07:55:04;;;;;;;;;;;;;;;;;;2212322;59;2342;-21
2023/07/20 07:57:34;;;;;;;;;;;;;;;;;;2208816;59;2985;-21
2023/07/20 08:00:05;;;;;;;;;;;;;;;;;;2212050;59;2018;-21
2023/07/20 08:02:36;;;;;;;;;;;;;;;;;;2212419;59;1897;-21
2023/07/20 08:05:06;;;;;;;;;;;;;;;;;;2213048;66;1689;-21
2023/07/20 08:07:36;;;;;;;;;;;;;;;;;;2212646;59;1718;-21
2023/07/20 08:10:07;;;;;;;;;;;;;;;;;;2211949;59;2170;-21
2023/07/20 08:12:37;;;;;;;;;;;;;;;;;;2212755;59;1934;-21
2023/07/20 08:15:10;;;;;;;;;;;;;;;;;;2212195;59;2001;-21
2023/07/20 08:17:41;;;;;;;;;;;;;;;;;;2213185;59;2198;-21
2023/07/20 08:20:13;;;;;;;;;;;;;;;;;;2211852;59;2253;-21
2023/07/20 08:22:43;;;;;;;;;;;;;;;;;;2212892;59;2057;-21
2023/07/20 08:25:13;;;;;;;;;;;;;;;;;;2212578;66;1642;-21
2023/07/20 08:27:46;;;;;;;;;;;;;;;;;;2212894;59;1628;-21
2023/07/20 08:30:17;;;;;;;;;;;;;;;;;;2212409;66;1234;-21
2023/07/20 08:32:47;;;;;;;;;;;;;;;;;;2208687;59;1757;-21
2023/07/20 08:35:18;;;;;;;;;;;;;;;;;;2209766;59;2494;-19
2023/07/20 08:37:49;;;;;;;;;;;;;;;;;;2212137;59;2376;-19
2023/07/20 08:40:19;;;;;;;;;;;;;;;;;;2208349;67;2070;-21
2023/07/20 08:42:50;;;;;;;;;;;;;;;;;;2207911;59;2123;-21
2023/07/20 08:45:22;;;;;;;;;;;;;;;;;;2210706;59;2577;-22
2023/07/20 08:47:52;;;;;;;;;;;;;;;;;;2212960;66;1283;-22
2023/07/20 08:50:22;;;;;;;;;;;;;;;;;;2212800;59;1325;-21
2023/07/20 08:52:53;;;;;;;;;;;;;;;;;;2212730;59;2029;-21
2023/07/20 08:55:25;;;;;;;;;;;;;;;;;;2212474;59;2297;-21
2023/07/20 08:57:57;;;;;;;;;;;;;;;;;;2212114;59;2335;-21
2023/07/20 09:00:30;;;;;;;;;;;;;;;;;;2212933;59;1832;-21
2023/07/20 09:03:02;;;;;;;;;;;;;;;;;;2213272;66;1978;-21
2023/07/20 09:05:34;;;;;;;;;;;;;;;;;;2212496;59;2051;-21
2023/07/20 09:08:05;;;;;;;;;;;;;;;;;;2209454;66;2084;-21
2023/07/20 09:10:35;;;;;;;;;;;;;;;;;;2213304;66;1852;-21
2023/07/20 09:13:05;;;;;;;;;;;;;;;;;;2213659;59;1819;-21
2023/07/20 09:15:35;;;;;;;;;;;;;;;;;;2212793;66;2298;-21
2023/07/20 09:18:06;;;;;;;;;;;;;;;;;;2213055;66;2335;-19
2023/07/20 09:20:36;;;;;;;;;;;;;;;;;;2209098;59;2371;-19
2023/07/20 09:23:06;;;;;;;;;;;;;;;;;;2212761;59;4496;-19
2023/07/20 09:25:37;;;;;;;;;;;;;;;;;;2211429;59;2104;-19
2023/07/20 09:28:07;;;;;;;;;;;;;;;;;;2213884;59;2319;-19
2023/07/20 09:30:37;;;;;;;;;;;;;;;;;;2213896;59;1825;-20
2023/07/20 09:33:18;;;;;;;;;;;;;;;;;;2213082;59;1765;-19
2023/07/20 09:35:48;;;;;;;;;;;;;;;;;;2213546;66;1668;-19
2023/07/20 09:38:18;;;;;;;;;;;;;;;;;;2213116;66;1996;-19
2023/07/20 09:40:50;;;;;;;;;;;;;;;;;;2209819;59;1810;-19
2023/07/20 09:43:23;;;;;;;;;;;;;;;;;;2213255;66;2014;-19
2023/07/20 09:45:57;;;;;;;;;;;;;;;;;;2213390;59;1782;-20
2023/07/20 09:48:27;;;;;;;;;;;;;;;;;;2212925;59;1701;-20
2023/07/20 09:50:57;;;;;;;;;;;;;;;;;;2208896;59;1833;-19
2023/07/20 09:53:28;;;;;;;;;;;;;;;;;;2212317;59;2046;-21
2023/07/20 09:55:58;;;;;;;;;;;;;;;;;;2213214;59;1682;-22
2023/07/20 09:58:31;;;;;;;;;;;;;;;;;;2207589;59;2521;-21
2023/07/20 10:01:06;;;;;;;;;;;;;;;;;;2209193;59;2492;-21
2023/07/20 10:03:37;;;;;;;;;;;;;;;;;;2213034;59;1744;-21
2023/07/20 10:06:10;;;;;;;;;;;;;;;;;;2209426;66;1988;-21
2023/07/20 10:08:41;;;;;;;;;;;;;;;;;;2213168;59;2770;-21
2023/07/20 10:11:13;;;;;;;;;;;;;;;;;;2212890;59;1828;-21
2023/07/20 10:13:44;;;;;;;;;;;;;;;;;;2213223;67;1690;-21
2023/07/20 10:16:29;;;;;;;;;;;;;;;;;;2209042;59;1314;-21
2023/07/20 10:19:03;;;;;;;;;;;;;;;;;;2212773;66;1933;-21
2023/07/20 10:21:37;;;;;;;;;;;;;;;;;;2212889;59;1413;-21
2023/07/20 10:24:08;;;;;;;;;;;;;;;;;;2211142;59;2238;-21
2023/07/20 10:26:38;;;;;;;;;;;;;;;;;;2208309;59;2093;-21
2023/07/20 10:29:09;;;;;;;;;;;;;;;;;;2208794;60;1636;-21
2023/07/20 10:31:39;;;;;;;;;;;;;;;;;;2206897;59;2020;-21
2023/07/20 10:34:10;;;;;;;;;;;;;;;;;;2211608;59;2071;-22
2023/07/20 10:36:45;;;;;;;;;;;;;;;;;;2212509;59;1748;-22
2023/07/20 10:39:28;;;;;;;;;;;;;;;;;;2212138;59;1931;-21
2023/07/20 10:42:03;;;;;;;;;;;;;;;;;;2212423;59;1744;-22
2023/07/20 10:44:33;;;;;;;;;;;;;;;;;;2211736;59;2188;-22
2023/07/20 10:47:08;;;;;;;;;;;;;;;;;;2212456;66;1162;-21
2023/07/20 10:49:57;;;;;;;;;;;;;;;;;;2211648;59;2174;-22
2023/07/20 10:52:38;;;;;;;;;;;;;;;;;;2212265;59;2035;-20
2023/07/20 10:55:15;;;;;;;;;;;;;;;;;;2211282;59;2248;-19
2023/07/20 10:58:06;;;;;;;;;;;;;;;;;;2210096;59;2689;-19
2023/07/20 11:00:36;;;;;;;;;;;;;;;;;;2212179;59;2941;-20
2023/07/20 11:03:06;;;;;;;;;;;;;;;;;;2212604;59;1826;-20
2023/07/20 11:05:38;;;;;;;;;;;;;;;;;;2212856;59;1872;-20
2023/07/20 11:08:12;;;;;;;;;;;;;;;;;;2212445;66;1253;-19
2023/07/20 11:10:42;;;;;;;;;;;;;;;;;;2211677;59;1920;-19
2023/07/20 11:13:16;;;;;;;;;;;;;;;;;;2211600;59;1927;-19
2023/07/20 11:15:58;;;;;;;;;;;;;;;;;;2212817;66;2468;-19
2023/07/20 11:18:28;;;;;;;;;;;;;;;;;;2212723;66;1984;-20
2023/07/20 11:20:59;;;;;;;;;;;;;;;;;;2213027;59;2173;-19
2023/07/20 11:23:31;;;;;;;;;;;;;;;;;;2212444;66;1826;-19
2023/07/20 11:26:02;;;;;;;;;;;;;;;;;;2213733;59;1228;-19
2023/07/20 11:28:33;;;;;;;;;;;;;;;;;;2213174;66;1921;-19
2023/07/20 11:31:04;;;;;;;;;;;;;;;;;;2211215;59;1933;-19
2023/07/20 11:33:34;;;;;;;;;;;;;;;;;;2212911;66;2327;-19
2023/07/20 11:36:05;;;;;;;;;;;;;;;;;;2212793;66;1465;-19
2023/07/20 11:38:36;;;;;;;;;;;;;;;;;;2212895;67;1996;-20
2023/07/20 11:41:06;;;;;;;;;;;;;;;;;;2212839;59;2048;-19
2023/07/20 11:43:37;;;;;;;;;;;;;;;;;;2212687;67;1755;-20
2023/07/20 11:46:08;;;;;;;;;;;;;;;;;;2212831;67;1685;-19
2023/07/20 11:48:39;;;;;;;;;;;;;;;;;;2208649;59;1579;-19
2023/07/20 11:51:17;;;;;;;;;;;;;;;;;;2212154;59;1380;-19
2023/07/20 11:53:47;;;;;;;;;;;;;;;;;;2213382;59;2094;-19
2023/07/20 11:56:17;;;;;;;;;;;;;;;;;;2213891;59;1860;-20
2023/07/20 11:58:48;;;;;;;;;;;;;;;;;;2212297;66;2619;-19
2023/07/20 12:01:18;;;;;;;;;;;;;;;;;;2209185;59;2150;-19
2023/07/20 12:03:48;;;;;;;;;;;;;;;;;;2211237;59;1816;-19
2023/07/20 12:06:22;;;;;;;;;;;;;;;;;;2213615;66;1481;-19
2023/07/20 12:08:57;;;;;;;;;;;;;;;;;;2209428;67;1773;-19
2023/07/20 12:11:45;;;;;;;;;;;;;;;;;;2211931;58;3182;-19
2023/07/20 12:14:15;;;;;;;;;;;;;;;;;;2213252;66;2613;-19
2023/07/20 12:16:52;;;;;;;;;;;;;;;;;;2214074;59;3716;-19
2023/07/20 12:19:26;;;;;;;;;;;;;;;;;;2213214;66;2319;-19
2023/07/20 12:21:59;;;;;;;;;;;;;;;;;;2209473;59;1870;-19
2023/07/20 12:24:29;;;;;;;;;;;;;;;;;;2209661;67;2088;-19
2023/07/20 12:27:00;;;;;;;;;;;;;;;;;;2212878;59;2360;-19
2023/07/20 12:29:31;;;;;;;;;;;;;;;;;;2213290;66;1692;-19
2023/07/20 12:32:01;;;;;;;;;;;;;;;;;;2213443;59;2055;-19
2023/07/20 12:34:32;;;;;;;;;;;;;;;;;;2213855;66;1819;-19
2023/07/20 12:37:03;;;;;;;;;;;;;;;;;;2208755;59;2199;-19
2023/07/20 12:39:36;;;;;;;;;;;;;;;;;;2213073;59;2272;-19
2023/07/20 12:42:06;;;;;;;;;;;;;;;;;;2212800;59;2143;-19
2023/07/20 12:44:36;;;;;;;;;;;;;;;;;;2213200;66;2443;-19
2023/07/20 12:47:07;;;;;;;;;;;;;;;;;;2213691;59;1709;-19
2023/07/20 12:49:37;;;;;;;;;;;;;;;;;;2213290;59;2068;-19
2023/07/20 12:52:08;;;;;;;;;;;;;;;;;;2213539;59;1935;-19
2023/07/20 12:54:38;;;;;;;;;;;;;;;;;;2213949;59;1246;-21
2023/07/20 12:57:08;;;;;;;;;;;;;;;;;;2209804;59;1295;-21
2023/07/20 12:59:38;;;;;;;;;;;;;;;;;;2212959;59;2767;-21
2023/07/20 13:02:08;;;;;;;;;;;;;;;;;;2208685;59;2216;-19
2023/07/20 13:04:39;;;;;;;;;;;;;;;;;;2213945;59;1865;-19
2023/07/20 13:07:09;;;;;;;;;;;;;;;;;;2213290;59;1649;-19
2023/07/20 13:09:40;;;;;;;;;;;;;;;;;;2212637;53;2873;-23
2023/07/20 13:12:10;;;;;;;;;;;;;;;;;;2212056;59;3265;-23
2023/07/20 13:14:40;;;;;;;;;;;;;;;;;;2212737;58;1861;-23
2023/07/20 13:17:10;;;;;;;;;;;;;;;;;;2216385;58;1695;-22
2023/07/20 13:19:41;;;;;;;;;;;;;;;;;;2216326;58;2019;-23
2023/07/20 13:22:11;;;;;;;;;;;;;;;;;;2216406;66;1571;-22
2023/07/20 13:24:41;;;;;;;;;;;;;;;;;;2215752;58;1942;-23
2023/07/20 13:27:12;;;;;;;;;;;;;;;;;;2216508;58;1342;-23
2023/07/20 13:29:42;;;;;;;;;;;;;;;;;;2213025;58;1759;-23
2023/07/20 13:32:13;;;;;;;;;;;;;;;;;;2212387;59;1718;-24
2023/07/20 13:34:44;;;;;;;;;;;;;;;;;;2216975;66;1631;-24
2023/07/20 13:37:14;;;;;;;;;;;;;;;;;;2215768;59;2051;-24
2023/07/20 13:39:44;;;;;;;;;;;;;;;;;;2215906;58;2231;-23
2023/07/20 13:42:15;;;;;;;;;;;;;;;;;;2212476;66;2263;-24
2023/07/20 13:44:46;;;;;;;;;;;;;;;;;;2212757;58;1725;-24
2023/07/20 13:47:16;;;;;;;;;;;;;;;;;;2216424;66;1635;-23
2023/07/20 13:49:46;;;;;;;;;;;;;;;;;;2217557;58;1660;-23
2023/07/20 13:52:17;;;;;;;;;;;;;;;;;;2217014;58;2155;-24
2023/07/20 13:54:47;;;;;;;;;;;;;;;;;;2216432;58;1996;-23
2023/07/20 13:57:17;;;;;;;;;;;;;;;;;;2212491;59;2532;-23
2023/07/20 13:59:47;;;;;;;;;;;;;;;;;;2216843;58;2177;-24
2023/07/20 14:02:18;;;;;;;;;;;;;;;;;;2215586;59;2296;-24
2023/07/20 14:04:48;;;;;;;;;;;;;;;;;;2210233;59;3127;-23
2023/07/20 14:07:18;;;;;;;;;;;;;;;;;;2215682;59;2268;-23
2023/07/20 14:09:48;;;;;;;;;;;;;;;;;;2216131;58;2230;-23
2023/07/20 14:12:19;;;;;;;;;;;;;;;;;;2215548;58;2292;-23
2023/07/20 14:14:49;;;;;;;;;;;;;;;;;;2215945;58;4894;-24
2023/07/20 14:17:20;;;;;;;;;;;;;;;;;;2215036;59;2150;-23
2023/07/20 14:19:50;;;;;;;;;;;;;;;;;;2215827;58;1967;-24
2023/07/20 14:22:21;;;;;;;;;;;;;;;;;;2212512;66;2035;-24
2023/07/20 14:24:51;;;;;;;;;;;;;;;;;;2212702;60;1921;-24
2023/07/20 14:27:21;;;;;;;;;;;;;;;;;;2216528;59;2012;-24
2023/07/20 14:29:53;;;;;;;;;;;;;;;;;;2214330;58;2915;-23
2023/07/20 14:32:23;;;;;;;;;;;;;;;;;;2212394;59;2957;-24
2023/07/20 14:34:53;;;;;;;;;;;;;;;;;;2216228;66;2092;-24
2023/07/20 14:37:23;;;;;;;;;;;;;;;;;;2216139;66;2663;-24
2023/07/20 14:39:53;;;;;;;;;;;;;;;;;;2216403;66;2052;-24
2023/07/20 14:42:24;;;;;;;;;;;;;;;;;;2216958;66;2508;-23
2023/07/20 14:44:54;;;;;;;;;;;;;;;;;;2216207;59;2787;-23
2023/07/20 14:47:24;;;;;;;;;;;;;;;;;;2215786;66;2486;-23
2023/07/20 14:49:54;;;;;;;;;;;;;;;;;;2215014;66;2394;-23
2023/07/20 14:52:25;;;;;;;;;;;;;;;;;;2216324;58;2161;-23
2023/07/20 14:54:55;;;;;;;;;;;;;;;;;;2212557;59;2616;-23
2023/07/20 14:57:25;;;;;;;;;;;;;;;;;;2216330;66;2089;-23
2023/07/20 14:59:55;;;;;;;;;;;;;;;;;;2212786;58;2143;-24
2023/07/20 15:02:25;;;;;;;;;;;;;;;;;;2215261;59;3163;-24
2023/07/20 15:04:56;;;;;;;;;;;;;;;;;;2212491;59;2789;-24
2023/07/20 15:07:26;;;;;;;;;;;;;;;;;;2216364;66;2102;-23
2023/07/20 15:09:57;;;;;;;;;;;;;;;;;;2216069;58;2082;-23
2023/07/20 15:12:27;;;;;;;;;;;;;;;;;;2216992;58;2103;-24
2023/07/20 15:15:05;;;;;;;;;;;;;;;;;;2215274;66;2101;-23
2023/07/20 15:17:37;;;;;;;;;;;;;;;;;;2216277;66;2544;-24
2023/07/20 15:20:08;;;;;;;;;;;;;;;;;;2215469;59;4180;-24
2023/07/20 15:22:39;;;;;;;;;;;;;;;;;;2216197;66;2424;-24
2023/07/20 15:25:12;;;;;;;;;;;;;;;;;;2216440;66;2002;-24
2023/07/20 15:27:43;;;;;;;;;;;;;;;;;;2215850;58;1781;-24
2023/07/20 15:30:14;;;;;;;;;;;;;;;;;;2216262;66;2305;-24
2023/07/20 15:32:44;;;;;;;;;;;;;;;;;;2214913;58;2104;-24
2023/07/20 15:35:14;;;;;;;;;;;;;;;;;;2212036;66;2190;-24
2023/07/20 15:37:45;;;;;;;;;;;;;;;;;;2216215;66;1667;-24
2023/07/20 15:40:15;;;;;;;;;;;;;;;;;;2216110;66;2174;-23
2023/07/20 15:42:45;;;;;;;;;;;;;;;;;;2216340;58;2582;-24
2023/07/20 15:45:16;;;;;;;;;;;;;;;;;;2215559;66;1953;-24
2023/07/20 15:47:46;;;;;;;;;;;;;;;;;;2215584;58;2808;-23
2023/07/20 15:50:17;;;;;;;;;;;;;;;;;;2215967;66;2006;-23
2023/07/20 15:52:47;;;;;;;;;;;;;;;;;;2215919;58;2555;-24
2023/07/20 15:55:17;;;;;;;;;;;;;;;;;;2215208;59;2629;-24
2023/07/20 15:57:48;;;;;;;;;;;;;;;;;;2208568;66;2296;-22
2023/07/20 16:00:18;;;;;;;;;;;;;;;;;;2213278;58;2042;-22
2023/07/20 16:02:49;;;;;;;;;;;;;;;;;;2209916;59;2250;-23
2023/07/20 16:05:19;;;;;;;;;;;;;;;;;;2210053;59;2640;-22
2023/07/20 16:07:49;;;;;;;;;;;;;;;;;;2212008;59;2253;-22
2023/07/20 16:10:19;;;;;;;;;;;;;;;;;;2213155;58;2509;-22
2023/07/20 16:12:50;;;;;;;;;;;;;;;;;;2213122;58;2719;-22
2023/07/20 16:15:21;;;;;;;;;;;;;;;;;;2214265;58;1967;-22
2023/07/20 16:17:51;;;;;;;;;;;;;;;;;;2216403;66;1315;-22
2023/07/20 16:20:21;;;;;;;;;;;;;;;;;;2216275;58;2008;-22
2023/07/20 16:22:52;;;;;;;;;;;;;;;;;;2216611;59;2692;-25
2023/07/20 16:25:22;;;;;;;;;;;;;;;;;;2214105;59;2796;-22
2023/07/20 16:27:52;;;;;;;;;;;;;;;;;;2212956;58;2708;-22
2023/07/20 16:30:22;;;;;;;;;;;;;;;;;;2211090;58;2786;-22
2023/07/20 16:32:53;;;;;;;;;;;;;;;;;;2215445;66;2453;-22
2023/07/20 16:35:23;;;;;;;;;;;;;;;;;;2215776;59;2435;-22
2023/07/20 16:37:55;;;;;;;;;;;;;;;;;;2216107;62;2658;-22
2023/07/20 16:40:25;;;;;;;;;;;;;;;;;;2216956;66;2125;-23
2023/07/20 16:42:55;;;;;;;;;;;;;;;;;;2216522;66;2069;-23
2023/07/20 16:45:25;;;;;;;;;;;;;;;;;;2216397;58;2144;-23
2023/07/20 16:47:55;;;;;;;;;;;;;;;;;;2216618;66;2172;-23
2023/07/20 16:50:28;;;;;;;;;;;;;;;;;;2216513;66;2014;-23
2023/07/20 16:53:00;;;;;;;;;;;;;;;;;;2216869;58;2499;-23
2023/07/20 16:55:30;;;;;;;;;;;;;;;;;;2215774;58;2662;-23
2023/07/20 16:58:00;;;;;;;;;;;;;;;;;;2214543;59;2186;-23
2023/07/20 17:00:30;;;;;;;;;;;;;;;;;;2212929;58;2577;-23
2023/07/20 17:03:02;;;;;;;;;;;;;;;;;;2212217;66;2661;-23
2023/07/20 17:05:33;;;;;;;;;;;;;;;;;;2216626;58;2533;-23
2023/07/20 17:08:03;;;;;;;;;;;;;;;;;;2215774;59;2135;-23
2023/07/20 17:10:33;;;;;;;;;;;;;;;;;;2216584;58;2699;-23
2023/07/20 17:13:04;;;;;;;;;;;;;;;;;;2216013;58;2072;-23
2023/07/20 17:15:34;;;;;;;;;;;;;;;;;;2215667;59;2676;-23
2023/07/20 17:18:05;;;;;;;;;;;;;;;;;;2216387;66;2593;-23
2023/07/20 17:20:35;;;;;;;;;;;;;;;;;;2216301;58;2767;-23
2023/07/20 17:23:06;;;;;;;;;;;;;;;;;;2212526;66;2824;-23
2023/07/20 17:25:36;;;;;;;;;;;;;;;;;;2215341;58;3496;-23
2023/07/20 17:28:06;;;;;;;;;;;;;;;;;;2215971;66;2004;-23
2023/07/20 17:30:37;;;;;;;;;;;;;;;;;;2215602;58;2506;-23
2023/07/20 17:33:08;;;;;;;;;;;;;;;;;;2215838;59;2157;-23